createdAt,value
2019-04-23T00:01:08.904Z,44.56
2019-04-23T00:02:23.312Z,44.72
2019-04-23T00:03:30.265Z,44.08
2019-04-23T00:04:31.442Z,44.84
2019-04-23T00:05:43.225Z,44.95
2019-04-23T00:06:47.706Z,44.95
2019-04-23T00:08:07.358Z,44.85
2019-04-23T00:10:01.290Z,44.37
2019-04-23T00:11:08.786Z,44.03
2019-04-23T00:12:09.973Z,44.54
2019-04-23T00:13:12.956Z,44.59
2019-04-23T00:14:23.977Z,45.08
2019-04-23T00:15:21.570Z,45.09
2019-04-23T00:17:38.891Z,44.41
2019-04-23T00:19:39.720Z,44.66
2019-04-23T00:20:47.693Z,44.79
2019-04-23T00:22:06.635Z,44.95
2019-04-23T00:23:10.937Z,44.92
2019-04-23T00:24:52.837Z,45.16
2019-04-23T00:25:51.121Z,45.24
2019-04-23T00:26:51.862Z,45.14
2019-04-23T00:27:59.807Z,45.33
2019-04-23T00:29:08.268Z,45.24
2019-04-23T00:30:00.940Z,45.24
2019-04-23T00:32:23.911Z,45.50
2019-04-23T00:34:24.698Z,45.18
2019-04-23T00:35:34.205Z,45.18
2019-04-23T00:37:35.471Z,45.50
2019-04-23T00:38:45.574Z,45.50
2019-04-23T00:39:53.237Z,45.17
2019-04-23T00:40:54.279Z,45.79
2019-04-23T00:41:58.744Z,45.79
2019-04-23T00:43:03.550Z,45.97
2019-04-23T00:44:04.089Z,45.85
2019-04-23T00:45:12.366Z,45.98
2019-04-23T00:46:16.947Z,45.70
2019-04-23T00:47:29.444Z,46.01
2019-04-23T00:48:48.090Z,45.57
2019-04-23T00:49:30.935Z,46.13
2019-04-23T00:50:44.713Z,46.05
2019-04-23T00:51:42.587Z,45.79
2019-04-23T00:52:45.734Z,45.72
2019-04-23T00:53:51.847Z,46.01
2019-04-23T00:54:57.324Z,46.01
2019-04-23T00:57:07.024Z,46.44
2019-04-23T00:58:12.503Z,45.89
2019-04-23T00:59:12.448Z,45.89
2019-04-23T01:00:31.251Z,46.06
2019-04-23T01:01:31.857Z,46.55
2019-04-23T01:03:30.787Z,46.29
2019-04-23T01:04:40.373Z,46.50
2019-04-23T01:05:41.032Z,46.50
2019-04-23T01:06:51.181Z,46.55
2019-04-23T01:07:50.106Z,46.47
2019-04-23T01:08:59.485Z,46.78
2019-04-23T01:10:29.228Z,46.78
2019-04-23T01:11:27.475Z,46.92
2019-04-23T01:12:38.258Z,46.97
2019-04-23T01:14:38.508Z,46.83
2019-04-23T01:16:55.174Z,46.73
2019-04-23T01:18:03.429Z,46.86
2019-04-23T01:19:12.210Z,46.86
2019-04-23T01:20:14.241Z,46.57
2019-04-23T01:21:07.581Z,47.19
2019-04-23T01:22:12.557Z,47.34
2019-04-23T01:23:54.452Z,47.34
2019-04-23T01:25:20.028Z,47.54
2019-04-23T01:26:37.597Z,47.04
2019-04-23T01:27:51.564Z,47.04
2019-04-23T01:28:50.285Z,47.42
2019-04-23T01:29:57.943Z,47.42
2019-04-23T01:31:03.738Z,47.71
2019-04-23T01:31:57.347Z,47.47
2019-04-23T01:33:11.000Z,47.80
2019-04-23T01:34:20.042Z,48.09
2019-04-23T01:35:24.032Z,47.92
2019-04-23T01:36:25.366Z,47.94
2019-04-23T01:37:30.457Z,47.68
2019-04-23T01:39:36.826Z,47.75
2019-04-23T01:40:40.628Z,48.08
2019-04-23T01:41:48.070Z,48.38
2019-04-23T01:42:48.953Z,48.38
2019-04-23T01:43:50.566Z,47.96
2019-04-23T01:45:11.767Z,48.12
2019-04-23T01:46:01.309Z,48.23
2019-04-23T01:47:15.606Z,48.56
2019-04-23T01:48:12.496Z,48.79
2019-04-23T01:49:25.075Z,48.79
2019-04-23T01:51:38.083Z,48.61
2019-04-23T01:52:41.748Z,48.15
2019-04-23T01:54:48.384Z,48.32
2019-04-23T01:55:47.287Z,48.38
2019-04-23T01:56:49.440Z,48.61
2019-04-23T01:58:06.949Z,48.61
2019-04-23T02:00:09.867Z,48.90
2019-04-23T02:01:06.774Z,48.90
2019-04-23T02:02:12.235Z,49.28
2019-04-23T02:03:18.255Z,48.96
2019-04-23T02:04:25.021Z,48.96
2019-04-23T02:05:32.933Z,49.13
2019-04-23T02:06:34.879Z,48.94
2019-04-23T02:07:45.941Z,48.98
2019-04-23T02:08:40.217Z,48.78
2019-04-23T02:09:58.645Z,49.28
2019-04-23T02:11:59.097Z,49.53
2019-04-23T02:14:09.464Z,49.68
2019-04-23T02:16:19.294Z,49.45
2019-04-23T02:17:25.423Z,49.45
2019-04-23T02:18:33.921Z,49.26
2019-04-23T02:19:44.740Z,49.51
2019-04-23T02:20:43.022Z,49.50
2019-04-23T02:21:54.808Z,49.77
2019-04-23T02:24:27.465Z,49.65
2019-04-23T02:26:35.603Z,49.63
2019-04-23T02:27:42.644Z,49.95
2019-04-23T02:28:54.626Z,49.95
2019-04-23T02:32:03.333Z,50.04
2019-04-23T02:33:23.801Z,49.64
2019-04-23T02:36:35.707Z,49.87
2019-04-23T02:38:42.194Z,50.45
2019-04-23T02:40:58.164Z,50.28
2019-04-23T02:41:54.439Z,50.67
2019-04-23T02:44:04.864Z,50.72
2019-04-23T02:45:04.701Z,50.32
2019-04-23T02:47:17.451Z,50.56
2019-04-23T02:48:19.048Z,50.56
2019-04-23T02:50:34.559Z,50.78
2019-04-23T02:51:38.987Z,51.08
2019-04-23T02:52:38.909Z,51.29
2019-04-23T02:55:57.106Z,50.80
2019-04-23T02:56:51.067Z,50.89
2019-04-23T02:59:10.292Z,50.87
2019-04-23T03:01:22.004Z,51.15
2019-04-23T03:02:26.283Z,51.18
2019-04-23T03:03:25.232Z,51.57
2019-04-23T03:05:31.357Z,51.11
2019-04-23T03:07:45.913Z,51.23
2019-04-23T03:08:51.904Z,51.33
2019-04-23T03:10:59.613Z,51.08
2019-04-23T03:12:00.705Z,51.75
2019-04-23T03:13:11.932Z,51.31
2019-04-23T03:14:07.553Z,51.49
2019-04-23T03:17:03.103Z,51.04
2019-04-23T03:19:23.908Z,51.08
2019-04-23T03:22:01.475Z,51.29
2019-04-23T03:24:51.957Z,51.48
2019-04-23T03:25:33.838Z,51.93
2019-04-23T03:27:00.977Z,51.56
2019-04-23T03:27:50.030Z,51.96
2019-04-23T03:29:05.697Z,51.99
2019-04-23T03:35:09.051Z,52.43
2019-04-23T03:35:29.330Z,52.02
2019-04-23T03:36:45.278Z,52.26
2019-04-23T03:39:56.626Z,52.11
2019-04-23T03:40:58.933Z,51.98
2019-04-23T03:41:54.192Z,52.22
2019-04-23T03:43:51.937Z,52.26
2019-04-23T03:47:24.202Z,52.08
2019-04-23T03:48:26.251Z,51.94
2019-04-23T03:50:35.800Z,52.39
2019-04-23T03:51:37.539Z,52.19
2019-04-23T03:53:52.874Z,52.24
2019-04-23T03:54:45.649Z,51.96
2019-04-23T03:58:05.027Z,51.79
2019-04-23T04:00:35.190Z,51.97
2019-04-23T04:01:25.302Z,52.30
2019-04-23T04:04:38.990Z,51.96
2019-04-23T04:06:48.043Z,52.43
2019-04-23T04:08:02.474Z,52.23
2019-04-23T04:08:58.455Z,52.38
2019-04-23T04:09:53.902Z,52.38
2019-04-23T04:12:16.606Z,52.21
2019-04-23T04:13:15.746Z,52.53
2019-04-23T04:14:36.350Z,52.83
2019-04-23T04:15:41.666Z,52.72
2019-04-23T04:16:28.960Z,52.46
2019-04-23T04:18:54.653Z,52.06
2019-04-23T04:20:49.381Z,52.30
2019-04-23T04:23:13.549Z,52.43
2019-04-23T04:25:10.025Z,52.70
2019-04-23T04:26:17.858Z,52.71
2019-04-23T04:28:28.734Z,52.49
2019-04-23T04:30:41.049Z,52.57
2019-04-23T04:31:44.076Z,52.63
2019-04-23T04:32:54.191Z,52.69
2019-04-23T04:34:10.885Z,52.38
2019-04-23T04:36:13.154Z,52.21
2019-04-23T04:38:18.133Z,52.21
2019-04-23T04:39:08.313Z,52.29
2019-04-23T04:40:18.229Z,52.86
2019-04-23T04:41:29.048Z,52.94
2019-04-23T04:45:52.164Z,52.32
2019-04-23T04:46:47.773Z,52.95
2019-04-23T04:48:59.099Z,52.77
2019-04-23T04:51:08.427Z,53.43
2019-04-23T04:52:34.226Z,53.21
2019-04-23T04:53:22.849Z,53.10
2019-04-23T04:54:18.882Z,53.15
2019-04-23T04:55:21.037Z,53.72
2019-04-23T04:56:30.322Z,53.23
2019-04-23T04:59:45.688Z,53.29
2019-04-23T05:00:59.179Z,53.43
2019-04-23T05:01:50.273Z,53.43
2019-04-23T05:03:16.541Z,52.67
2019-04-23T05:03:50.791Z,53.05
2019-04-23T05:07:11.145Z,52.86
2019-04-23T05:09:22.904Z,53.26
2019-04-23T05:10:39.271Z,53.17
2019-04-23T05:11:40.963Z,53.17
2019-04-23T05:12:55.059Z,53.00
2019-04-23T05:14:52.488Z,52.41
2019-04-23T05:15:56.596Z,52.41
2019-04-23T05:16:57.313Z,52.34
2019-04-23T05:18:23.473Z,52.48
2019-04-23T05:19:57.297Z,52.53
2019-04-23T05:20:37.335Z,52.55
2019-04-23T05:21:51.785Z,52.36
2019-04-23T05:22:48.824Z,52.48
2019-04-23T05:23:50.869Z,52.48
2019-04-23T05:24:52.531Z,52.21
2019-04-23T05:26:02.873Z,52.15
2019-04-23T05:28:23.076Z,52.36
2019-04-23T05:30:15.476Z,52.42
2019-04-23T05:44:21.657Z,51.79
2019-04-23T05:45:21.748Z,52.23
2019-04-23T05:46:33.049Z,52.23
2019-04-23T05:47:56.244Z,51.82
2019-04-23T05:48:37.654Z,51.40
2019-04-23T05:49:46.096Z,51.50
2019-04-23T05:51:55.148Z,51.11
2019-04-23T05:52:59.583Z,51.13
2019-04-23T05:54:03.585Z,51.40
2019-04-23T05:56:15.292Z,50.98
2019-04-23T05:57:13.996Z,51.37
2019-04-23T05:58:31.730Z,51.37
2019-04-23T05:59:30.951Z,50.87
2019-04-23T06:00:39.936Z,50.83
2019-04-23T06:02:48.533Z,50.81
2019-04-23T06:03:56.546Z,50.81
2019-04-23T06:04:49.909Z,50.60
2019-04-23T06:06:05.062Z,50.60
2019-04-23T06:07:15.038Z,50.01
2019-04-23T06:08:16.258Z,49.91
2019-04-23T06:10:20.057Z,49.69
2019-04-23T06:11:30.770Z,49.89
2019-04-23T06:12:25.410Z,49.78
2019-04-23T06:13:35.682Z,49.50
2019-04-23T06:14:40.553Z,49.50
2019-04-23T06:16:57.465Z,49.60
2019-04-23T06:18:06.662Z,49.60
2019-04-23T06:20:12.331Z,49.36
2019-04-23T06:21:15.334Z,49.89
2019-04-23T06:22:26.949Z,49.75
2019-04-23T06:23:29.088Z,49.75
2019-04-23T06:27:49.374Z,49.93
2019-04-23T06:28:50.771Z,50.29
2019-04-23T06:29:49.571Z,50.03
2019-04-23T06:32:00.440Z,48.15
2019-04-23T06:33:16.630Z,48.54
2019-04-23T06:34:18.500Z,47.99
2019-04-23T06:35:22.178Z,49.03
2019-04-23T06:36:25.648Z,48.72
2019-04-23T06:37:49.520Z,48.70
2019-04-23T06:40:48.827Z,48.29
2019-04-23T06:41:55.155Z,47.76
2019-04-23T06:43:05.056Z,47.73
2019-04-23T06:44:19.048Z,47.27
2019-04-23T06:45:19.886Z,47.49
2019-04-23T06:46:19.775Z,47.49
2019-04-23T06:47:26.228Z,47.02
2019-04-23T06:49:44.129Z,47.30
2019-04-23T06:50:51.054Z,47.62
2019-04-23T06:51:55.170Z,46.72
2019-04-23T06:52:50.547Z,46.72
2019-04-23T06:53:56.733Z,46.77
2019-04-23T06:55:01.579Z,46.77
2019-04-23T06:57:14.663Z,46.02
2019-04-23T06:58:22.131Z,46.02
2019-04-23T06:59:24.697Z,46.13
2019-04-23T07:00:29.601Z,46.71
2019-04-23T07:01:27.719Z,45.96
2019-04-23T07:02:42.238Z,46.50
2019-04-23T07:03:43.251Z,46.50
2019-04-23T07:04:58.677Z,46.67
2019-04-23T07:07:37.923Z,46.84
2019-04-23T07:08:32.508Z,46.94
2019-04-23T07:09:20.610Z,46.54
2019-04-23T07:10:40.722Z,46.12
2019-04-23T07:11:39.422Z,46.12
2019-04-23T07:13:58.507Z,45.52
2019-04-23T07:14:59.588Z,45.52
2019-04-23T07:16:03.234Z,44.42
2019-04-23T07:18:18.145Z,44.28
2019-04-23T07:19:25.010Z,42.82
2019-04-23T07:20:25.251Z,43.08
2019-04-23T07:22:57.014Z,43.48
2019-04-23T07:23:46.809Z,44.06
2019-04-23T07:24:49.119Z,44.68
2019-04-23T07:26:03.858Z,44.96
2019-04-23T07:26:49.452Z,44.74
2019-04-23T07:28:09.436Z,43.72
2019-04-23T07:30:13.631Z,43.33
2019-04-23T07:31:23.742Z,43.33
2019-04-23T07:32:20.865Z,44.20
2019-04-23T07:33:31.024Z,44.31
2019-04-23T07:34:30.345Z,44.32
2019-04-23T07:35:45.959Z,44.76
2019-04-23T07:36:50.842Z,44.76
2019-04-23T07:38:05.864Z,43.63
2019-04-23T07:43:21.437Z,43.00
2019-04-23T07:44:48.423Z,43.00
2019-04-23T07:46:33.697Z,41.21
2019-04-23T07:47:43.632Z,41.72
2019-04-23T07:48:50.670Z,41.72
2019-04-23T07:50:09.530Z,41.58
2019-04-23T07:51:03.720Z,41.82
2019-04-23T07:52:13.350Z,40.97
2019-04-23T07:54:22.676Z,41.05
2019-04-23T07:56:31.810Z,39.67
2019-04-23T07:57:38.139Z,39.67
2019-04-23T07:58:33.219Z,39.23
2019-04-23T08:00:02.568Z,38.73
2019-04-23T08:01:05.015Z,38.83
2019-04-23T08:01:57.498Z,38.72
2019-04-23T08:03:13.891Z,38.12
2019-04-23T08:04:31.737Z,38.27
2019-04-23T08:06:12.118Z,38.21
2019-04-23T08:07:28.261Z,38.21
2019-04-23T08:08:23.748Z,41.21
2019-04-23T08:09:34.418Z,41.76
2019-04-23T08:10:56.887Z,40.70
2019-04-23T08:11:49.268Z,42.00
2019-04-23T08:12:46.982Z,41.98
2019-04-23T08:15:05.141Z,40.46
2019-04-23T08:16:10.733Z,40.63
2019-04-23T08:17:04.302Z,40.63
2019-04-23T08:18:13.419Z,41.48
2019-04-23T08:19:21.224Z,42.38
2019-04-23T08:20:21.257Z,42.54
2019-04-23T08:21:36.382Z,42.36
2019-04-23T08:22:37.218Z,41.47
2019-04-23T08:24:10.241Z,41.08
2019-04-23T08:25:48.869Z,41.08
2019-04-23T08:26:53.536Z,40.28
2019-04-23T08:27:55.740Z,40.86
2019-04-23T08:30:05.653Z,40.27
2019-04-23T08:31:23.005Z,40.27
2019-04-23T08:33:31.412Z,40.04
2019-04-23T08:34:54.553Z,39.90
2019-04-23T08:35:48.591Z,39.33
2019-04-23T08:36:49.894Z,40.28
2019-04-23T08:38:51.182Z,41.36
2019-04-23T08:39:52.416Z,41.05
2019-04-23T08:41:21.506Z,40.20
2019-04-23T08:42:28.731Z,40.08
2019-04-23T08:43:42.251Z,39.18
2019-04-23T08:45:03.126Z,38.48
2019-04-23T08:46:05.900Z,37.94
2019-04-23T08:47:26.159Z,37.94
2019-04-23T08:51:08.167Z,37.76
2019-04-23T08:52:04.411Z,37.46
2019-04-23T08:53:18.299Z,36.76
2019-04-23T08:54:15.263Z,38.28
2019-04-23T08:55:13.715Z,38.28
2019-04-23T08:56:20.609Z,38.84
2019-04-23T08:59:38.859Z,39.77
2019-04-23T09:00:46.307Z,39.72
2019-04-23T09:02:00.699Z,39.72
2019-04-23T09:03:10.858Z,39.98
2019-04-23T09:03:56.412Z,39.98
2019-04-23T09:05:23.461Z,40.67
2019-04-23T09:07:16.488Z,42.00
2019-04-23T09:09:29.102Z,42.63
2019-04-23T09:10:32.562Z,41.93
2019-04-23T09:14:54.726Z,39.47
2019-04-23T09:15:56.305Z,38.30
2019-04-23T09:16:57.645Z,38.30
2019-04-23T09:18:06.226Z,38.39
2019-04-23T09:21:15.595Z,39.24
2019-04-23T09:23:46.718Z,37.70
2019-04-23T09:24:40.038Z,37.68
2019-04-23T09:26:58.573Z,36.24
2019-04-23T09:28:01.860Z,37.12
2019-04-23T09:29:05.970Z,37.88
2019-04-23T09:32:51.314Z,40.97
2019-04-23T09:34:09.880Z,40.97
2019-04-23T09:35:48.655Z,41.06
2019-04-23T09:37:21.078Z,39.60
2019-04-23T09:38:38.193Z,40.90
2019-04-23T09:40:04.817Z,40.78
2019-04-23T09:42:54.426Z,41.75
2019-04-23T09:44:52.697Z,41.00
2019-04-23T09:45:48.441Z,41.35
2019-04-23T09:47:17.509Z,40.75
2019-04-23T09:48:09.092Z,42.27
2019-04-23T09:49:26.016Z,42.27
2019-04-23T09:51:38.658Z,42.58
2019-04-23T09:52:48.381Z,41.82
2019-04-23T09:53:48.670Z,41.41
2019-04-23T09:54:57.736Z,41.41
2019-04-23T09:55:46.757Z,40.27
2019-04-23T09:57:10.542Z,39.75
2019-04-23T09:59:15.965Z,40.17
2019-04-23T10:02:29.250Z,38.36
2019-04-23T10:03:36.302Z,38.75
2019-04-23T10:04:39.860Z,40.08
2019-04-23T10:05:39.643Z,40.08
2019-04-23T10:06:38.932Z,40.94
2019-04-23T10:07:51.921Z,40.94
2019-04-23T10:08:51.992Z,40.64
2019-04-23T10:09:59.534Z,40.64
2019-04-23T10:11:05.015Z,40.30
2019-04-23T10:12:13.183Z,41.03
2019-04-23T10:13:18.000Z,40.07
2019-04-23T10:14:21.699Z,40.79
2019-04-23T10:15:33.025Z,40.47
2019-04-23T10:16:34.101Z,40.42
2019-04-23T10:17:36.128Z,40.42
2019-04-23T10:18:44.924Z,40.30
2019-04-23T10:19:46.726Z,40.30
2019-04-23T10:20:49.607Z,40.10
2019-04-23T10:21:53.345Z,40.65
2019-04-23T10:22:56.685Z,40.50
2019-04-23T10:24:01.428Z,40.32
2019-04-23T10:25:04.506Z,40.52
2019-04-23T10:26:09.979Z,40.52
2019-04-23T10:27:14.727Z,40.66
2019-04-23T10:28:26.213Z,40.69
2019-04-23T10:29:36.243Z,39.53
2019-04-23T10:43:07.409Z,41.35
2019-04-23T10:44:21.461Z,41.63
2019-04-23T10:45:44.798Z,41.72
2019-04-23T10:47:26.576Z,42.19
2019-04-23T10:48:49.667Z,41.11
2019-04-23T10:50:05.427Z,41.11
2019-04-23T10:51:09.076Z,41.65
2019-04-23T10:55:35.275Z,42.11
2019-04-23T10:56:40.827Z,42.28
2019-04-23T10:57:36.086Z,42.28
2019-04-23T10:58:45.781Z,41.87
2019-04-23T11:00:04.395Z,41.86
2019-04-23T11:01:01.710Z,43.22
2019-04-23T11:02:25.388Z,42.27
2019-04-23T11:03:20.396Z,42.67
2019-04-23T11:04:32.933Z,42.52
2019-04-23T11:05:29.115Z,42.00
2019-04-23T11:06:32.530Z,42.00
2019-04-23T11:07:30.824Z,41.44
2019-04-23T11:08:37.052Z,41.35
2019-04-23T11:09:52.369Z,42.71
2019-04-23T11:10:46.328Z,41.34
2019-04-23T11:12:02.116Z,40.90
2019-04-23T11:13:19.440Z,40.90
2019-04-23T11:14:31.053Z,40.71
2019-04-23T11:15:55.713Z,41.64
2019-04-23T11:16:52.254Z,41.86
2019-04-23T11:18:58.276Z,42.45
2019-04-23T11:20:56.480Z,41.71
2019-04-23T11:22:17.461Z,41.72
2019-04-23T11:22:59.132Z,41.56
2019-04-23T11:25:32.965Z,41.06
2019-04-23T11:26:32.729Z,40.03
2019-04-23T11:27:35.030Z,40.03
2019-04-23T11:31:12.051Z,40.90
2019-04-23T11:32:40.802Z,40.90
2019-04-23T11:33:18.494Z,41.26
2019-04-23T11:34:51.165Z,41.17
2019-04-23T11:35:50.720Z,39.56
2019-04-23T11:36:53.316Z,39.58
2019-04-23T11:38:06.626Z,39.58
2019-04-23T11:40:09.186Z,39.17
2019-04-23T11:42:26.219Z,39.44
2019-04-23T11:43:39.556Z,39.52
2019-04-23T11:44:40.066Z,39.43
2019-04-23T11:47:09.534Z,39.86
2019-04-23T11:48:21.874Z,40.45
2019-04-23T11:49:29.578Z,40.37
2019-04-23T11:50:25.605Z,39.68
2019-04-23T11:53:42.447Z,39.76
2019-04-23T11:54:43.185Z,40.08
2019-04-23T11:58:20.245Z,41.17
2019-04-23T11:59:27.492Z,40.78
2019-04-23T12:00:39.000Z,40.78
2019-04-23T12:01:56.192Z,40.78
2019-04-23T12:03:02.532Z,40.64
2019-04-23T12:04:40.706Z,39.65
2019-04-23T12:06:09.401Z,39.72
2019-04-23T12:07:26.311Z,40.28
2019-04-23T12:08:47.503Z,39.96
2019-04-23T12:10:22.242Z,40.09
2019-04-23T12:12:53.573Z,41.29
2019-04-23T12:14:22.060Z,40.90
2019-04-23T12:15:19.668Z,40.36
2019-04-23T12:16:31.736Z,40.31
2019-04-23T12:17:24.709Z,39.55
2019-04-23T12:18:43.288Z,39.50
2019-04-23T12:20:37.927Z,39.90
2019-04-23T12:21:52.845Z,41.30
2019-04-23T12:24:04.581Z,40.50
2019-04-23T12:26:24.018Z,39.56
2019-04-23T12:27:27.452Z,39.54
2019-04-23T12:28:33.719Z,39.73
2019-04-23T12:29:50.666Z,39.92
2019-04-23T12:30:45.239Z,40.20
2019-04-23T12:32:23.993Z,40.20
2019-04-23T12:33:22.251Z,39.27
2019-04-23T12:34:30.116Z,38.90
2019-04-23T12:36:46.674Z,39.14
2019-04-23T12:38:13.974Z,39.32
2019-04-23T12:39:21.540Z,40.82
2019-04-23T12:40:30.872Z,41.02
2019-04-23T12:41:29.881Z,41.02
2019-04-23T12:42:48.520Z,41.99
2019-04-23T12:43:34.028Z,41.59
2019-04-23T12:44:38.629Z,41.20
2019-04-23T12:45:35.672Z,40.96
2019-04-23T12:47:58.490Z,40.71
2019-04-23T12:50:18.986Z,41.22
2019-04-23T12:50:56.960Z,41.22
2019-04-23T12:52:17.088Z,41.36
2019-04-23T12:53:24.336Z,41.27
2019-04-23T12:54:38.451Z,41.06
2019-04-23T12:55:41.835Z,41.43
2019-04-23T12:56:40.325Z,41.43
2019-04-23T12:58:32.344Z,41.67
2019-04-23T12:59:50.070Z,42.31
2019-04-23T13:00:48.092Z,42.20
2019-04-23T13:02:03.056Z,42.20
2019-04-23T13:03:06.401Z,41.94
2019-04-23T13:04:13.698Z,41.58
2019-04-23T13:05:23.151Z,41.70
2019-04-23T13:06:16.962Z,41.73
2019-04-23T13:07:26.363Z,42.22
2019-04-23T13:08:33.259Z,42.22
2019-04-23T13:09:47.560Z,42.19
2019-04-23T13:11:30.165Z,41.99
2019-04-23T13:13:58.684Z,41.63
2019-04-23T13:15:04.797Z,41.27
2019-04-23T13:16:16.469Z,40.94
2019-04-23T13:17:29.720Z,41.38
2019-04-23T13:18:27.315Z,41.38
2019-04-23T13:19:39.683Z,41.46
2019-04-23T13:20:31.864Z,41.88
2019-04-23T13:24:04.941Z,41.13
2019-04-23T13:25:45.618Z,41.15
2019-04-23T13:26:37.985Z,40.71
2019-04-23T13:27:53.513Z,40.91
2019-04-23T13:28:51.011Z,41.53
2019-04-23T13:31:10.551Z,40.85
2019-04-23T13:32:13.685Z,41.01
2019-04-23T13:33:34.728Z,40.91
2019-04-23T13:34:41.475Z,40.91
2019-04-23T13:35:45.585Z,41.43
2019-04-23T13:36:45.385Z,41.09
2019-04-23T13:39:52.990Z,40.49
2019-04-23T13:41:05.882Z,40.81
2019-04-23T13:42:06.993Z,41.52
2019-04-23T13:43:14.923Z,41.52
2019-04-23T13:44:14.264Z,41.28
2019-04-23T13:45:35.354Z,41.28
2019-04-23T13:47:43.347Z,39.37
2019-04-23T13:48:27.065Z,39.74
2019-04-23T13:49:43.125Z,39.74
2019-04-23T13:50:50.024Z,39.54
2019-04-23T13:51:46.725Z,38.47
2019-04-23T13:53:58.847Z,38.77
2019-04-23T13:55:09.649Z,40.02
2019-04-23T13:57:56.014Z,39.49
2019-04-23T13:58:29.460Z,39.89
2019-04-23T13:59:48.601Z,40.36
2019-04-23T14:00:57.674Z,40.84
2019-04-23T14:02:04.098Z,40.82
2019-04-23T14:02:56.479Z,40.60
2019-04-23T14:04:04.243Z,39.57
2019-04-23T14:05:12.707Z,39.67
2019-04-23T14:06:35.015Z,39.34
2019-04-23T14:07:32.521Z,38.72
2019-04-23T14:08:41.653Z,38.91
2019-04-23T14:09:47.428Z,39.21
2019-04-23T14:11:46.649Z,39.47
2019-04-23T14:13:08.494Z,39.05
2019-04-23T14:14:01.568Z,39.59
2019-04-23T14:15:04.885Z,39.59
2019-04-23T14:16:29.827Z,39.27
2019-04-23T14:18:49.046Z,39.50
2019-04-23T14:19:21.556Z,39.50
2019-04-23T14:20:28.236Z,39.36
2019-04-23T14:25:02.547Z,39.97
2019-04-23T14:26:10.890Z,39.71
2019-04-23T14:26:58.739Z,38.96
2019-04-23T14:28:13.878Z,38.45
2019-04-23T14:29:04.128Z,38.45
2019-04-23T14:30:25.470Z,38.79
2019-04-23T14:31:17.530Z,38.43
2019-04-23T14:33:57.400Z,37.71
2019-04-23T14:34:34.862Z,37.71
2019-04-23T14:35:42.595Z,37.02
2019-04-23T14:36:52.577Z,37.02
2019-04-23T14:38:12.455Z,37.01
2019-04-23T14:38:58.202Z,39.86
2019-04-23T14:40:26.417Z,39.40
2019-04-23T14:41:23.645Z,39.42
2019-04-23T14:42:49.800Z,39.55
2019-04-23T14:43:40.338Z,39.55
2019-04-23T14:44:40.555Z,38.59
2019-04-23T14:46:25.108Z,38.59
2019-04-23T14:47:14.696Z,38.46
2019-04-23T14:49:20.486Z,37.14
2019-04-23T14:52:30.264Z,35.65
2019-04-23T14:53:30.286Z,35.21
2019-04-23T14:55:17.944Z,35.55
2019-04-23T14:55:56.867Z,35.55
2019-04-23T14:57:03.890Z,36.35
2019-04-23T14:58:09.875Z,36.35
2019-04-23T15:00:18.210Z,35.27
2019-04-23T15:01:27.300Z,36.22
2019-04-23T15:02:25.650Z,36.22
2019-04-23T15:06:02.539Z,35.50
2019-04-23T15:07:58.419Z,35.50
2019-04-23T15:09:19.745Z,36.21
2019-04-23T15:12:24.571Z,36.58
2019-04-23T15:14:34.269Z,37.78
2019-04-23T15:15:34.351Z,37.73
2019-04-23T15:19:40.238Z,37.24
2019-04-23T15:21:08.466Z,36.76
2019-04-23T15:22:05.307Z,36.47
2019-04-23T15:24:14.011Z,36.35
2019-04-23T15:28:03.395Z,35.18
2019-04-23T15:28:07.741Z,34.73
2019-04-23T15:29:24.604Z,35.35
2019-04-23T15:30:45.942Z,35.35
2019-04-23T15:31:54.378Z,34.64
2019-04-23T15:33:07.683Z,34.28
2019-04-23T15:34:10.727Z,35.31
2019-04-23T15:35:05.432Z,35.51
2019-04-23T15:36:26.277Z,35.51
2019-04-23T15:38:36.013Z,36.73
2019-04-23T15:39:24.370Z,37.35
2019-04-23T15:40:25.174Z,37.35
2019-04-23T15:41:41.859Z,37.74
2019-04-23T15:42:44.444Z,37.74
2019-04-23T15:43:44.411Z,38.40
2019-04-23T15:44:49.072Z,38.55
2019-04-23T15:45:53.856Z,38.55
2019-04-23T15:47:01.858Z,38.58
2019-04-23T15:48:11.620Z,38.37
2019-04-23T15:50:23.528Z,38.64
2019-04-23T15:51:28.208Z,38.69
2019-04-23T15:52:33.254Z,38.69
2019-04-23T15:53:26.639Z,38.80
2019-04-23T15:54:55.164Z,38.80
2019-04-23T15:55:44.069Z,38.91
2019-04-23T15:56:51.933Z,38.78
2019-04-23T15:59:15.190Z,38.77
2019-04-23T15:59:58.932Z,38.72
2019-04-23T16:01:15.367Z,38.72
2019-04-23T16:01:45.458Z,38.81
2019-04-23T16:02:51.217Z,39.16
2019-04-23T16:03:55.738Z,38.82
2019-04-23T16:05:00.105Z,38.82
2019-04-23T16:06:04.784Z,38.97
2019-04-23T16:07:10.522Z,39.57
2019-04-23T16:08:51.348Z,39.50
2019-04-23T16:09:50.943Z,39.50
2019-04-23T16:10:54.543Z,39.49
2019-04-23T16:12:06.202Z,39.58
2019-04-23T16:13:02.950Z,39.80
2019-04-23T16:15:13.178Z,39.56
2019-04-23T16:16:30.019Z,39.44
2019-04-23T16:17:32.683Z,39.44
2019-04-23T16:18:49.781Z,39.69
2019-04-23T16:20:16.899Z,39.69
2019-04-23T16:21:26.547Z,39.75
2019-04-23T16:22:24.849Z,39.87
2019-04-23T16:23:21.106Z,40.18
2019-04-23T16:25:20.601Z,39.89
2019-04-23T16:28:02.135Z,40.48
2019-04-23T16:30:22.962Z,40.50
2019-04-23T16:44:36.661Z,40.47
2019-04-23T16:46:35.140Z,40.40
2019-04-23T16:47:36.895Z,40.06
2019-04-23T16:49:06.733Z,40.20
2019-04-23T16:50:02.638Z,40.20
2019-04-23T16:51:10.857Z,40.17
2019-04-23T16:52:05.142Z,40.22
2019-04-23T16:53:19.328Z,40.43
2019-04-23T16:54:18.262Z,40.19
2019-04-23T16:55:22.435Z,40.19
2019-04-23T16:56:28.846Z,40.35
2019-04-23T17:00:02.569Z,40.66
2019-04-23T17:01:52.726Z,40.78
2019-04-23T17:03:07.280Z,40.51
2019-04-23T17:04:03.827Z,40.51
2019-04-23T17:05:11.016Z,40.61
2019-04-23T17:07:22.165Z,40.41
2019-04-23T17:10:53.328Z,41.09
2019-04-23T17:12:54.694Z,41.05
2019-04-23T17:14:00.971Z,41.27
2019-04-23T17:15:09.392Z,41.74
2019-04-23T17:17:09.963Z,41.84
2019-04-23T17:18:22.547Z,41.84
2019-04-23T17:19:36.806Z,41.89
2019-04-23T17:20:40.823Z,41.89
2019-04-23T17:21:36.706Z,41.99
2019-04-23T17:22:47.975Z,41.99
2019-04-23T17:25:05.607Z,42.17
2019-04-23T17:26:06.616Z,42.27
2019-04-23T17:28:20.247Z,42.15
2019-04-23T17:29:26.696Z,42.64
2019-04-23T17:30:28.584Z,42.68
2019-04-23T17:31:35.388Z,42.84
2019-04-23T17:32:49.744Z,42.61
2019-04-23T17:34:09.087Z,42.88
2019-04-23T17:35:17.458Z,43.05
2019-04-23T17:37:53.778Z,42.95
2019-04-23T17:38:57.504Z,42.87
2019-04-23T17:40:08.478Z,43.21
2019-04-23T17:41:12.908Z,43.31
2019-04-23T17:43:46.987Z,43.28
2019-04-23T17:44:55.176Z,43.29
2019-04-23T17:45:46.972Z,43.41
2019-04-23T17:48:43.841Z,43.55
2019-04-23T17:49:41.632Z,43.55
2019-04-23T17:50:52.785Z,43.63
2019-04-23T17:53:00.967Z,43.52
2019-04-23T17:54:07.495Z,43.78
2019-04-23T17:55:10.197Z,43.82
2019-04-23T17:57:32.563Z,44.26
2019-04-23T17:58:34.784Z,44.10
2019-04-23T18:02:31.767Z,44.27
2019-04-23T18:03:36.210Z,44.27
2019-04-23T18:04:23.935Z,44.27
2019-04-23T18:06:38.093Z,44.81
2019-04-23T18:08:43.759Z,44.50
2019-04-23T18:09:46.638Z,44.67
2019-04-23T18:10:56.426Z,44.88
2019-04-23T18:12:00.690Z,44.88
2019-04-23T18:13:06.020Z,44.88
2019-04-23T18:14:05.432Z,44.88
2019-04-23T18:15:04.965Z,45.30
2019-04-23T18:16:30.775Z,44.91
2019-04-23T18:19:34.334Z,45.15
2019-04-23T18:21:03.086Z,45.11
2019-04-23T18:23:15.173Z,45.28
2019-04-23T18:24:50.316Z,45.07
2019-04-23T18:26:01.577Z,45.22
2019-04-23T18:27:05.178Z,45.52
2019-04-23T18:28:21.118Z,45.52
2019-04-23T18:29:27.692Z,45.55
2019-04-23T18:30:32.096Z,45.22
2019-04-23T18:31:48.653Z,45.66
2019-04-23T18:35:19.610Z,45.75
2019-04-23T18:36:14.730Z,45.76
2019-04-23T18:37:24.558Z,45.65
2019-04-23T18:38:31.962Z,45.65
2019-04-23T18:39:36.954Z,45.63
2019-04-23T18:42:00.360Z,46.24
2019-04-23T18:43:07.465Z,46.23
2019-04-23T18:44:21.709Z,46.23
2019-04-23T18:45:31.671Z,46.16
2019-04-23T18:47:40.523Z,46.12
2019-04-23T18:48:45.489Z,46.62
2019-04-23T18:49:45.305Z,46.72
2019-04-23T18:51:05.155Z,46.72
2019-04-23T18:51:58.224Z,46.61
2019-04-23T18:53:16.401Z,46.62
2019-04-23T18:54:07.427Z,46.73
2019-04-23T18:55:24.477Z,46.73
2019-04-23T18:57:36.789Z,46.38
2019-04-23T18:58:50.567Z,46.89
2019-04-23T19:00:55.080Z,46.58
2019-04-23T19:02:35.453Z,46.63
2019-04-23T19:03:48.195Z,46.95